sensor_id;sensor_type;location;lat;lon;timestamp;P1;durP1;ratioP1;P2;durP2;ratioP2
23884;SDS011;12123;53.088;7.392;2022-12-08T00:01:40;9.55;;;2.85;;
23884;SDS011;12123;53.088;7.392;2022-12-08T00:04:08;7.07;;;2.40;;
23884;SDS011;12123;53.088;7.392;2022-12-08T00:06:39;5.40;;;2.58;;
23884;SDS011;12123;53.088;7.392;2022-12-08T00:12:00;8.82;;;2.65;;
23884;SDS011;12123;53.088;7.392;2022-12-08T00:16:55;8.05;;;2.55;;
23884;SDS011;12123;53.088;7.392;2022-12-08T00:19:23;12.00;;;2.50;;
23884;SDS011;12123;53.088;7.392;2022-12-08T00:21:51;4.85;;;2.28;;
23884;SDS011;12123;53.088;7.392;2022-12-08T00:24:19;6.32;;;1.92;;
23884;SDS011;12123;53.088;7.392;2022-12-08T00:26:46;7.55;;;2.20;;
23884;SDS011;12123;53.088;7.392;2022-12-08T00:29:14;6.15;;;2.40;;
23884;SDS011;12123;53.088;7.392;2022-12-08T00:31:43;4.55;;;1.70;;
23884;SDS011;12123;53.088;7.392;2022-12-08T00:34:11;8.18;;;2.90;;
23884;SDS011;12123;53.088;7.392;2022-12-08T00:36:38;10.38;;;1.73;;
23884;SDS011;12123;53.088;7.392;2022-12-08T00:39:05;5.57;;;2.45;;
23884;SDS011;12123;53.088;7.392;2022-12-08T00:41:32;8.43;;;1.88;;
23884;SDS011;12123;53.088;7.392;2022-12-08T00:44:18;7.40;;;1.50;;
23884;SDS011;12123;53.088;7.392;2022-12-08T00:46:46;8.23;;;1.88;;
23884;SDS011;12123;53.088;7.392;2022-12-08T00:49:14;7.93;;;2.03;;
23884;SDS011;12123;53.088;7.392;2022-12-08T00:51:42;6.88;;;1.90;;
23884;SDS011;12123;53.088;7.392;2022-12-08T00:54:09;5.57;;;2.10;;
23884;SDS011;12123;53.088;7.392;2022-12-08T00:56:37;7.22;;;1.70;;
23884;SDS011;12123;53.088;7.392;2022-12-08T00:59:05;6.70;;;1.60;;
23884;SDS011;12123;53.088;7.392;2022-12-08T01:01:33;5.13;;;2.03;;
23884;SDS011;12123;53.088;7.392;2022-12-08T01:04:04;7.25;;;1.65;;
23884;SDS011;12123;53.088;7.392;2022-12-08T01:06:31;6.50;;;1.50;;
23884;SDS011;12123;53.088;7.392;2022-12-08T01:09:00;7.88;;;1.60;;
23884;SDS011;12123;53.088;7.392;2022-12-08T01:11:28;6.38;;;1.80;;
23884;SDS011;12123;53.088;7.392;2022-12-08T01:13:55;4.05;;;1.23;;
23884;SDS011;12123;53.088;7.392;2022-12-08T01:16:23;7.15;;;1.65;;
23884;SDS011;12123;53.088;7.392;2022-12-08T01:18:51;8.25;;;1.58;;
23884;SDS011;12123;53.088;7.392;2022-12-08T01:21:18;4.65;;;1.38;;
23884;SDS011;12123;53.088;7.392;2022-12-08T01:23:45;11.27;;;2.53;;
23884;SDS011;12123;53.088;7.392;2022-12-08T01:26:13;4.20;;;1.67;;
23884;SDS011;12123;53.088;7.392;2022-12-08T01:28:41;10.82;;;3.53;;
23884;SDS011;12123;53.088;7.392;2022-12-08T01:31:12;5.40;;;2.00;;
23884;SDS011;12123;53.088;7.392;2022-12-08T01:33:40;7.78;;;2.60;;
23884;SDS011;12123;53.088;7.392;2022-12-08T01:36:08;4.72;;;1.55;;
23884;SDS011;12123;53.088;7.392;2022-12-08T01:38:38;5.05;;;1.95;;
23884;SDS011;12123;53.088;7.392;2022-12-08T01:41:05;4.35;;;1.67;;
23884;SDS011;12123;53.088;7.392;2022-12-08T01:43:42;4.47;;;1.85;;
23884;SDS011;12123;53.088;7.392;2022-12-08T01:46:11;2.50;;;1.40;;
23884;SDS011;12123;53.088;7.392;2022-12-08T01:48:38;7.18;;;1.73;;
23884;SDS011;12123;53.088;7.392;2022-12-08T01:51:05;4.07;;;1.50;;
23884;SDS011;12123;53.088;7.392;2022-12-08T01:53:33;6.18;;;1.45;;
23884;SDS011;12123;53.088;7.392;2022-12-08T01:56:09;5.53;;;2.47;;
23884;SDS011;12123;53.088;7.392;2022-12-08T01:58:39;5.43;;;1.70;;
23884;SDS011;12123;53.088;7.392;2022-12-08T02:01:07;6.40;;;1.98;;
23884;SDS011;12123;53.088;7.392;2022-12-08T02:03:42;7.35;;;1.90;;
23884;SDS011;12123;53.088;7.392;2022-12-08T02:06:11;7.13;;;1.80;;
23884;SDS011;12123;53.088;7.392;2022-12-08T02:08:39;5.40;;;2.00;;
23884;SDS011;12123;53.088;7.392;2022-12-08T02:11:10;8.95;;;2.17;;
23884;SDS011;12123;53.088;7.392;2022-12-08T02:13:38;4.90;;;2.00;;
23884;SDS011;12123;53.088;7.392;2022-12-08T02:19:07;6.82;;;1.75;;
23884;SDS011;12123;53.088;7.392;2022-12-08T02:35:25;4.45;;;1.50;;
23884;SDS011;12123;53.088;7.392;2022-12-08T02:37:30;3.70;;;1.45;;
23884;SDS011;12123;53.088;7.392;2022-12-08T02:40:01;5.05;;;1.67;;
23884;SDS011;12123;53.088;7.392;2022-12-08T02:42:46;6.05;;;1.60;;
23884;SDS011;12123;53.088;7.392;2022-12-08T02:45:16;4.82;;;2.00;;
23884;SDS011;12123;53.088;7.392;2022-12-08T02:47:45;4.78;;;1.83;;
23884;SDS011;12123;53.088;7.392;2022-12-08T02:50:12;2.63;;;1.52;;
23884;SDS011;12123;53.088;7.392;2022-12-08T02:52:44;2.25;;;1.52;;
23884;SDS011;12123;53.088;7.392;2022-12-08T03:00:28;3.83;;;1.60;;
23884;SDS011;12123;53.088;7.392;2022-12-08T03:11:17;4.18;;;1.73;;
23884;SDS011;12123;53.088;7.392;2022-12-08T03:13:48;10.73;;;2.10;;
23884;SDS011;12123;53.088;7.392;2022-12-08T03:16:18;5.43;;;2.20;;
23884;SDS011;12123;53.088;7.392;2022-12-08T03:18:47;5.88;;;2.30;;
23884;SDS011;12123;53.088;7.392;2022-12-08T03:21:15;5.95;;;2.30;;
23884;SDS011;12123;53.088;7.392;2022-12-08T03:23:44;8.00;;;2.10;;
23884;SDS011;12123;53.088;7.392;2022-12-08T03:26:13;7.45;;;2.35;;
23884;SDS011;12123;53.088;7.392;2022-12-08T03:28:43;4.53;;;2.45;;
23884;SDS011;12123;53.088;7.392;2022-12-08T03:31:11;3.70;;;2.13;;
23884;SDS011;12123;53.088;7.392;2022-12-08T03:33:40;5.82;;;2.40;;
23884;SDS011;12123;53.088;7.392;2022-12-08T03:36:09;3.97;;;2.20;;
23884;SDS011;12123;53.088;7.392;2022-12-08T03:38:41;6.07;;;2.45;;
23884;SDS011;12123;53.088;7.392;2022-12-08T03:41:09;6.25;;;2.50;;
23884;SDS011;12123;53.088;7.392;2022-12-08T03:43:55;3.42;;;2.30;;
23884;SDS011;12123;53.088;7.392;2022-12-08T03:46:25;5.70;;;2.30;;
23884;SDS011;12123;53.088;7.392;2022-12-08T03:48:51;6.55;;;2.95;;
23884;SDS011;12123;53.088;7.392;2022-12-08T03:51:19;9.43;;;2.22;;
23884;SDS011;12123;53.088;7.392;2022-12-08T03:53:46;6.57;;;2.22;;
23884;SDS011;12123;53.088;7.392;2022-12-08T03:56:30;9.88;;;3.13;;
23884;SDS011;12123;53.088;7.392;2022-12-08T03:58:58;5.95;;;2.65;;
23884;SDS011;12123;53.088;7.392;2022-12-08T04:01:25;7.43;;;2.30;;
23884;SDS011;12123;53.088;7.392;2022-12-08T04:03:53;6.65;;;2.67;;
23884;SDS011;12123;53.088;7.392;2022-12-08T04:06:21;5.10;;;2.25;;
23884;SDS011;12123;53.088;7.392;2022-12-08T04:08:49;8.40;;;2.63;;
23884;SDS011;12123;53.088;7.392;2022-12-08T04:11:16;6.10;;;3.78;;
23884;SDS011;12123;53.088;7.392;2022-12-08T04:13:43;5.40;;;2.38;;
23884;SDS011;12123;53.088;7.392;2022-12-08T04:16:21;6.15;;;2.53;;
23884;SDS011;12123;53.088;7.392;2022-12-08T04:18:49;8.48;;;3.00;;
23884;SDS011;12123;53.088;7.392;2022-12-08T04:21:16;6.63;;;2.60;;
23884;SDS011;12123;53.088;7.392;2022-12-08T04:23:43;7.82;;;2.47;;
23884;SDS011;12123;53.088;7.392;2022-12-08T04:26:11;4.03;;;2.50;;
23884;SDS011;12123;53.088;7.392;2022-12-08T04:28:38;3.55;;;2.17;;
23884;SDS011;12123;53.088;7.392;2022-12-08T04:31:06;6.38;;;2.40;;
23884;SDS011;12123;53.088;7.392;2022-12-08T04:33:33;6.50;;;1.88;;
23884;SDS011;12123;53.088;7.392;2022-12-08T04:36:01;5.35;;;1.85;;
23884;SDS011;12123;53.088;7.392;2022-12-08T04:38:28;5.75;;;2.00;;
23884;SDS011;12123;53.088;7.392;2022-12-08T04:40:56;5.20;;;1.80;;
23884;SDS011;12123;53.088;7.392;2022-12-08T04:43:23;3.20;;;1.98;;
23884;SDS011;12123;53.088;7.392;2022-12-08T04:45:50;3.95;;;1.77;;
23884;SDS011;12123;53.088;7.392;2022-12-08T04:48:17;3.03;;;1.38;;
23884;SDS011;12123;53.088;7.392;2022-12-08T04:50:45;2.75;;;1.45;;
23884;SDS011;12123;53.088;7.392;2022-12-08T04:53:12;4.07;;;1.92;;
23884;SDS011;12123;53.088;7.392;2022-12-08T04:55:40;4.75;;;2.00;;
23884;SDS011;12123;53.088;7.392;2022-12-08T04:58:12;5.28;;;2.17;;
23884;SDS011;12123;53.088;7.392;2022-12-08T05:00:40;2.78;;;1.70;;
23884;SDS011;12123;53.088;7.392;2022-12-08T05:03:07;5.50;;;1.50;;
23884;SDS011;12123;53.088;7.392;2022-12-08T05:05:34;3.20;;;1.52;;
23884;SDS011;12123;53.088;7.392;2022-12-08T05:08:02;2.65;;;1.70;;
23884;SDS011;12123;53.088;7.392;2022-12-08T05:10:29;4.97;;;1.80;;
23884;SDS011;12123;53.088;7.392;2022-12-08T05:12:57;2.22;;;1.77;;
23884;SDS011;12123;53.088;7.392;2022-12-08T05:15:24;3.92;;;2.13;;
23884;SDS011;12123;53.088;7.392;2022-12-08T05:17:51;5.47;;;2.20;;
23884;SDS011;12123;53.088;7.392;2022-12-08T05:20:18;3.45;;;2.10;;
23884;SDS011;12123;53.088;7.392;2022-12-08T05:22:45;7.40;;;2.25;;
23884;SDS011;12123;53.088;7.392;2022-12-08T05:25:13;4.45;;;1.90;;
23884;SDS011;12123;53.088;7.392;2022-12-08T05:27:40;4.68;;;1.63;;
23884;SDS011;12123;53.088;7.392;2022-12-08T05:30:08;2.55;;;1.70;;
23884;SDS011;12123;53.088;7.392;2022-12-08T05:32:35;3.35;;;2.65;;
23884;SDS011;12123;53.088;7.392;2022-12-08T05:35:02;1.58;;;1.45;;
23884;SDS011;12123;53.088;7.392;2022-12-08T05:37:30;3.17;;;1.83;;
23884;SDS011;12123;53.088;7.392;2022-12-08T05:39:57;3.38;;;1.42;;
23884;SDS011;12123;53.088;7.392;2022-12-08T05:42:24;7.53;;;1.77;;
23884;SDS011;12123;53.088;7.392;2022-12-08T05:44:51;4.03;;;1.63;;
23884;SDS011;12123;53.088;7.392;2022-12-08T05:47:18;2.75;;;1.77;;
23884;SDS011;12123;53.088;7.392;2022-12-08T05:49:45;2.67;;;1.70;;
23884;SDS011;12123;53.088;7.392;2022-12-08T05:52:13;4.30;;;1.73;;
23884;SDS011;12123;53.088;7.392;2022-12-08T05:54:42;4.90;;;1.50;;
23884;SDS011;12123;53.088;7.392;2022-12-08T05:57:09;3.95;;;1.50;;
23884;SDS011;12123;53.088;7.392;2022-12-08T05:59:36;4.22;;;1.60;;
23884;SDS011;12123;53.088;7.392;2022-12-08T06:02:04;3.42;;;1.50;;
23884;SDS011;12123;53.088;7.392;2022-12-08T06:04:31;3.55;;;1.40;;
23884;SDS011;12123;53.088;7.392;2022-12-08T06:06:59;3.60;;;1.23;;
23884;SDS011;12123;53.088;7.392;2022-12-08T06:09:26;3.30;;;1.30;;
23884;SDS011;12123;53.088;7.392;2022-12-08T06:11:53;4.60;;;1.80;;
23884;SDS011;12123;53.088;7.392;2022-12-08T06:14:20;2.80;;;1.50;;
23884;SDS011;12123;53.088;7.392;2022-12-08T06:16:47;1.88;;;1.10;;
23884;SDS011;12123;53.088;7.392;2022-12-08T06:19:14;1.83;;;1.00;;
23884;SDS011;12123;53.088;7.392;2022-12-08T06:21:42;2.22;;;1.33;;
23884;SDS011;12123;53.088;7.392;2022-12-08T06:24:09;2.78;;;1.33;;
23884;SDS011;12123;53.088;7.392;2022-12-08T06:26:36;3.05;;;1.50;;
23884;SDS011;12123;53.088;7.392;2022-12-08T06:29:05;1.92;;;1.40;;
23884;SDS011;12123;53.088;7.392;2022-12-08T06:31:32;2.45;;;1.13;;
23884;SDS011;12123;53.088;7.392;2022-12-08T06:33:59;2.63;;;1.40;;
23884;SDS011;12123;53.088;7.392;2022-12-08T06:36:26;4.68;;;1.60;;
23884;SDS011;12123;53.088;7.392;2022-12-08T06:38:54;4.00;;;1.40;;
23884;SDS011;12123;53.088;7.392;2022-12-08T06:41:21;4.07;;;1.38;;
23884;SDS011;12123;53.088;7.392;2022-12-08T06:43:49;2.97;;;1.10;;
23884;SDS011;12123;53.088;7.392;2022-12-08T06:46:17;2.72;;;1.08;;
23884;SDS011;12123;53.088;7.392;2022-12-08T06:48:44;2.58;;;1.05;;
23884;SDS011;12123;53.088;7.392;2022-12-08T06:51:13;1.85;;;1.20;;
23884;SDS011;12123;53.088;7.392;2022-12-08T06:53:41;3.13;;;1.00;;
23884;SDS011;12123;53.088;7.392;2022-12-08T06:56:08;3.83;;;1.08;;
23884;SDS011;12123;53.088;7.392;2022-12-08T06:58:36;4.50;;;1.20;;
23884;SDS011;12123;53.088;7.392;2022-12-08T07:01:07;2.80;;;1.20;;
23884;SDS011;12123;53.088;7.392;2022-12-08T07:03:35;1.63;;;1.25;;
23884;SDS011;12123;53.088;7.392;2022-12-08T07:06:03;2.45;;;1.00;;
23884;SDS011;12123;53.088;7.392;2022-12-08T07:08:31;1.95;;;1.17;;
23884;SDS011;12123;53.088;7.392;2022-12-08T07:10:59;3.10;;;1.00;;
23884;SDS011;12123;53.088;7.392;2022-12-08T07:13:26;1.60;;;1.00;;
23884;SDS011;12123;53.088;7.392;2022-12-08T07:15:53;4.30;;;1.00;;
23884;SDS011;12123;53.088;7.392;2022-12-08T07:18:20;2.33;;;1.10;;
23884;SDS011;12123;53.088;7.392;2022-12-08T07:20:47;1.38;;;0.93;;
23884;SDS011;12123;53.088;7.392;2022-12-08T07:23:14;4.05;;;1.08;;
23884;SDS011;12123;53.088;7.392;2022-12-08T07:25:41;4.43;;;1.27;;
23884;SDS011;12123;53.088;7.392;2022-12-08T07:28:09;3.33;;;0.95;;
23884;SDS011;12123;53.088;7.392;2022-12-08T07:30:37;1.63;;;1.20;;
23884;SDS011;12123;53.088;7.392;2022-12-08T07:33:05;3.80;;;0.98;;
23884;SDS011;12123;53.088;7.392;2022-12-08T07:35:32;2.90;;;0.80;;
23884;SDS011;12123;53.088;7.392;2022-12-08T07:38:00;3.95;;;1.00;;
23884;SDS011;12123;53.088;7.392;2022-12-08T07:40:27;2.75;;;1.02;;
23884;SDS011;12123;53.088;7.392;2022-12-08T07:42:55;2.00;;;1.30;;
23884;SDS011;12123;53.088;7.392;2022-12-08T07:45:22;5.75;;;1.30;;
23884;SDS011;12123;53.088;7.392;2022-12-08T07:47:56;6.30;;;1.27;;
23884;SDS011;12123;53.088;7.392;2022-12-08T07:50:23;5.35;;;1.30;;
23884;SDS011;12123;53.088;7.392;2022-12-08T07:52:51;1.15;;;0.90;;
23884;SDS011;12123;53.088;7.392;2022-12-08T07:55:18;2.78;;;1.00;;
23884;SDS011;12123;53.088;7.392;2022-12-08T07:57:45;3.15;;;1.20;;
23884;SDS011;12123;53.088;7.392;2022-12-08T08:00:12;1.75;;;1.00;;
23884;SDS011;12123;53.088;7.392;2022-12-08T08:02:40;2.83;;;1.15;;
23884;SDS011;12123;53.088;7.392;2022-12-08T08:05:08;4.30;;;1.45;;
23884;SDS011;12123;53.088;7.392;2022-12-08T08:07:37;3.55;;;1.27;;
23884;SDS011;12123;53.088;7.392;2022-12-08T08:10:07;2.90;;;1.00;;
23884;SDS011;12123;53.088;7.392;2022-12-08T08:12:35;1.20;;;0.82;;
23884;SDS011;12123;53.088;7.392;2022-12-08T08:15:03;1.92;;;0.90;;
23884;SDS011;12123;53.088;7.392;2022-12-08T08:17:35;3.67;;;1.20;;
23884;SDS011;12123;53.088;7.392;2022-12-08T08:20:03;5.25;;;1.00;;
23884;SDS011;12123;53.088;7.392;2022-12-08T08:22:32;3.90;;;1.35;;
23884;SDS011;12123;53.088;7.392;2022-12-08T08:25:00;2.38;;;1.10;;
23884;SDS011;12123;53.088;7.392;2022-12-08T08:27:27;3.65;;;1.30;;
23884;SDS011;12123;53.088;7.392;2022-12-08T08:29:54;5.10;;;3.08;;
23884;SDS011;12123;53.088;7.392;2022-12-08T08:32:21;3.22;;;1.40;;
23884;SDS011;12123;53.088;7.392;2022-12-08T08:34:49;1.70;;;1.02;;
23884;SDS011;12123;53.088;7.392;2022-12-08T08:37:16;4.35;;;1.40;;
23884;SDS011;12123;53.088;7.392;2022-12-08T08:39:44;3.30;;;1.13;;
23884;SDS011;12123;53.088;7.392;2022-12-08T08:42:11;2.85;;;1.25;;
23884;SDS011;12123;53.088;7.392;2022-12-08T08:44:38;6.07;;;1.83;;
23884;SDS011;12123;53.088;7.392;2022-12-08T08:47:05;5.25;;;1.67;;
23884;SDS011;12123;53.088;7.392;2022-12-08T08:49:32;5.65;;;1.25;;
23884;SDS011;12123;53.088;7.392;2022-12-08T08:52:00;4.65;;;1.40;;
23884;SDS011;12123;53.088;7.392;2022-12-08T08:54:27;5.32;;;1.60;;
23884;SDS011;12123;53.088;7.392;2022-12-08T08:56:58;2.78;;;1.60;;
23884;SDS011;12123;53.088;7.392;2022-12-08T08:59:25;5.47;;;1.90;;
23884;SDS011;12123;53.088;7.392;2022-12-08T09:01:53;2.67;;;1.45;;
23884;SDS011;12123;53.088;7.392;2022-12-08T09:04:22;3.55;;;1.58;;
23884;SDS011;12123;53.088;7.392;2022-12-08T09:06:49;4.50;;;1.95;;
23884;SDS011;12123;53.088;7.392;2022-12-08T09:09:16;5.32;;;2.20;;
23884;SDS011;12123;53.088;7.392;2022-12-08T09:11:43;4.50;;;1.60;;
23884;SDS011;12123;53.088;7.392;2022-12-08T09:14:11;3.47;;;2.22;;
23884;SDS011;12123;53.088;7.392;2022-12-08T09:16:40;4.93;;;2.35;;
23884;SDS011;12123;53.088;7.392;2022-12-08T09:19:08;5.57;;;2.28;;
23884;SDS011;12123;53.088;7.392;2022-12-08T09:21:35;6.85;;;2.35;;
23884;SDS011;12123;53.088;7.392;2022-12-08T09:24:02;9.13;;;3.03;;
23884;SDS011;12123;53.088;7.392;2022-12-08T09:26:29;7.72;;;3.55;;
23884;SDS011;12123;53.088;7.392;2022-12-08T09:28:56;8.10;;;3.45;;
23884;SDS011;12123;53.088;7.392;2022-12-08T09:31:24;8.98;;;3.97;;
23884;SDS011;12123;53.088;7.392;2022-12-08T09:33:51;9.30;;;4.22;;
23884;SDS011;12123;53.088;7.392;2022-12-08T09:36:19;7.82;;;4.05;;
23884;SDS011;12123;53.088;7.392;2022-12-08T09:38:46;9.23;;;3.65;;
23884;SDS011;12123;53.088;7.392;2022-12-08T09:46:37;8.23;;;3.97;;
23884;SDS011;12123;53.088;7.392;2022-12-08T09:49:04;6.68;;;4.25;;
23884;SDS011;12123;53.088;7.392;2022-12-08T09:51:38;6.38;;;4.03;;
23884;SDS011;12123;53.088;7.392;2022-12-08T09:54:17;6.22;;;3.33;;
23884;SDS011;12123;53.088;7.392;2022-12-08T09:56:47;6.50;;;3.50;;
23884;SDS011;12123;53.088;7.392;2022-12-08T09:59:25;6.65;;;3.00;;
23884;SDS011;12123;53.088;7.392;2022-12-08T10:01:55;8.45;;;3.63;;
23884;SDS011;12123;53.088;7.392;2022-12-08T10:04:23;5.93;;;3.25;;
23884;SDS011;12123;53.088;7.392;2022-12-08T10:12:08;4.57;;;3.20;;
23884;SDS011;12123;53.088;7.392;2022-12-08T10:14:41;8.80;;;3.17;;
23884;SDS011;12123;53.088;7.392;2022-12-08T10:19:48;4.72;;;2.50;;
23884;SDS011;12123;53.088;7.392;2022-12-08T10:22:21;6.80;;;3.08;;
23884;SDS011;12123;53.088;7.392;2022-12-08T10:24:56;4.07;;;2.45;;
23884;SDS011;12123;53.088;7.392;2022-12-08T10:27:25;4.82;;;2.67;;
23884;SDS011;12123;53.088;7.392;2022-12-08T10:29:52;5.30;;;2.88;;
23884;SDS011;12123;53.088;7.392;2022-12-08T10:32:21;7.43;;;2.70;;
23884;SDS011;12123;53.088;7.392;2022-12-08T10:34:58;3.25;;;2.38;;
23884;SDS011;12123;53.088;7.392;2022-12-08T10:37:25;7.20;;;2.83;;
23884;SDS011;12123;53.088;7.392;2022-12-08T10:40:00;3.47;;;2.00;;
23884;SDS011;12123;53.088;7.392;2022-12-08T10:42:33;5.72;;;2.25;;
23884;SDS011;12123;53.088;7.392;2022-12-08T10:45:46;4.28;;;2.10;;
23884;SDS011;12123;53.088;7.392;2022-12-08T10:47:59;4.18;;;1.90;;
23884;SDS011;12123;53.088;7.392;2022-12-08T10:55:44;4.47;;;2.25;;
23884;SDS011;12123;53.088;7.392;2022-12-08T11:08:43;4.72;;;1.73;;
23884;SDS011;12123;53.088;7.392;2022-12-08T11:11:11;3.25;;;1.40;;
23884;SDS011;12123;53.088;7.392;2022-12-08T11:13:39;3.20;;;1.65;;
23884;SDS011;12123;53.088;7.392;2022-12-08T11:16:07;3.33;;;1.50;;
23884;SDS011;12123;53.088;7.392;2022-12-08T11:21:12;5.13;;;1.63;;
23884;SDS011;12123;53.088;7.392;2022-12-08T11:23:40;6.15;;;1.63;;
23884;SDS011;12123;53.088;7.392;2022-12-08T11:28:54;2.95;;;1.30;;
23884;SDS011;12123;53.088;7.392;2022-12-08T11:33:49;5.32;;;1.23;;
23884;SDS011;12123;53.088;7.392;2022-12-08T11:36:17;3.28;;;1.58;;
23884;SDS011;12123;53.088;7.392;2022-12-08T11:38:46;6.07;;;1.90;;
23884;SDS011;12123;53.088;7.392;2022-12-08T11:41:16;7.65;;;1.50;;
23884;SDS011;12123;53.088;7.392;2022-12-08T11:51:17;2.15;;;1.20;;
23884;SDS011;12123;53.088;7.392;2022-12-08T11:56:36;5.68;;;1.10;;
23884;SDS011;12123;53.088;7.392;2022-12-08T11:59:16;7.55;;;1.80;;
23884;SDS011;12123;53.088;7.392;2022-12-08T12:01:44;2.97;;;1.20;;
23884;SDS011;12123;53.088;7.392;2022-12-08T12:04:15;5.70;;;1.45;;
23884;SDS011;12123;53.088;7.392;2022-12-08T12:09:31;1.67;;;1.20;;
23884;SDS011;12123;53.088;7.392;2022-12-08T12:22:31;2.03;;;0.90;;
23884;SDS011;12123;53.088;7.392;2022-12-08T12:24:59;3.95;;;1.27;;
23884;SDS011;12123;53.088;7.392;2022-12-08T12:27:29;7.20;;;1.63;;
23884;SDS011;12123;53.088;7.392;2022-12-08T12:29:59;6.13;;;1.58;;
23884;SDS011;12123;53.088;7.392;2022-12-08T12:32:39;3.22;;;1.40;;
23884;SDS011;12123;53.088;7.392;2022-12-08T12:35:13;5.38;;;1.38;;
23884;SDS011;12123;53.088;7.392;2022-12-08T12:37:41;2.95;;;1.30;;
23884;SDS011;12123;53.088;7.392;2022-12-08T12:40:16;5.68;;;1.35;;
23884;SDS011;12123;53.088;7.392;2022-12-08T12:42:45;4.55;;;1.35;;
23884;SDS011;12123;53.088;7.392;2022-12-08T12:47:45;1.52;;;0.90;;
23884;SDS011;12123;53.088;7.392;2022-12-08T12:53:46;6.10;;;1.20;;
23884;SDS011;12123;53.088;7.392;2022-12-08T13:03:39;4.90;;;1.23;;
23884;SDS011;12123;53.088;7.392;2022-12-08T13:06:07;2.38;;;1.33;;
23884;SDS011;12123;53.088;7.392;2022-12-08T13:08:40;4.50;;;0.88;;
23884;SDS011;12123;53.088;7.392;2022-12-08T13:14:01;4.13;;;1.20;;
23884;SDS011;12123;53.088;7.392;2022-12-08T13:16:33;4.78;;;0.95;;
23884;SDS011;12123;53.088;7.392;2022-12-08T13:19:10;4.32;;;1.05;;
23884;SDS011;12123;53.088;7.392;2022-12-08T13:21:38;5.43;;;0.90;;
23884;SDS011;12123;53.088;7.392;2022-12-08T13:26:45;6.93;;;1.40;;
23884;SDS011;12123;53.088;7.392;2022-12-08T13:29:14;5.20;;;1.20;;
23884;SDS011;12123;53.088;7.392;2022-12-08T13:31:43;3.53;;;1.30;;
23884;SDS011;12123;53.088;7.392;2022-12-08T13:36:59;6.47;;;1.00;;
23884;SDS011;12123;53.088;7.392;2022-12-08T13:39:31;6.25;;;2.22;;
23884;SDS011;12123;53.088;7.392;2022-12-08T13:42:01;3.25;;;1.08;;
23884;SDS011;12123;53.088;7.392;2022-12-08T13:47:47;7.47;;;1.17;;
23884;SDS011;12123;53.088;7.392;2022-12-08T13:50:49;5.80;;;1.45;;
23884;SDS011;12123;53.088;7.392;2022-12-08T13:53:38;6.95;;;3.03;;
23884;SDS011;12123;53.088;7.392;2022-12-08T13:56:27;5.78;;;1.60;;
23884;SDS011;12123;53.088;7.392;2022-12-08T14:01:46;5.95;;;1.88;;
23884;SDS011;12123;53.088;7.392;2022-12-08T14:04:15;9.25;;;2.55;;
23884;SDS011;12123;53.088;7.392;2022-12-08T14:07:03;7.30;;;2.72;;
23884;SDS011;12123;53.088;7.392;2022-12-08T14:09:34;13.57;;;4.18;;
23884;SDS011;12123;53.088;7.392;2022-12-08T14:12:05;5.30;;;3.40;;
23884;SDS011;12123;53.088;7.392;2022-12-08T14:14:35;7.53;;;3.40;;
23884;SDS011;12123;53.088;7.392;2022-12-08T14:17:26;7.95;;;3.05;;
23884;SDS011;12123;53.088;7.392;2022-12-08T14:19:57;10.20;;;3.38;;
23884;SDS011;12123;53.088;7.392;2022-12-08T14:22:31;11.32;;;3.83;;
23884;SDS011;12123;53.088;7.392;2022-12-08T14:24:59;12.45;;;3.90;;
23884;SDS011;12123;53.088;7.392;2022-12-08T14:27:26;5.90;;;3.70;;
23884;SDS011;12123;53.088;7.392;2022-12-08T14:35:24;10.45;;;4.00;;
23884;SDS011;12123;53.088;7.392;2022-12-08T14:37:56;9.07;;;4.10;;
23884;SDS011;12123;53.088;7.392;2022-12-08T14:40:27;13.48;;;3.65;;
23884;SDS011;12123;53.088;7.392;2022-12-08T14:48:26;9.90;;;3.50;;
23884;SDS011;12123;53.088;7.392;2022-12-08T14:53:21;5.60;;;2.45;;
23884;SDS011;12123;53.088;7.392;2022-12-08T14:55:48;12.52;;;2.83;;
23884;SDS011;12123;53.088;7.392;2022-12-08T14:58:19;11.65;;;3.45;;
23884;SDS011;12123;53.088;7.392;2022-12-08T15:00:49;7.03;;;2.63;;
23884;SDS011;12123;53.088;7.392;2022-12-08T15:03:20;5.32;;;2.03;;
23884;SDS011;12123;53.088;7.392;2022-12-08T15:05:51;5.60;;;2.00;;
23884;SDS011;12123;53.088;7.392;2022-12-08T15:08:19;7.40;;;2.17;;
23884;SDS011;12123;53.088;7.392;2022-12-08T15:10:46;6.63;;;2.40;;
23884;SDS011;12123;53.088;7.392;2022-12-08T15:13:33;9.75;;;2.40;;
23884;SDS011;12123;53.088;7.392;2022-12-08T15:16:00;11.10;;;2.85;;
23884;SDS011;12123;53.088;7.392;2022-12-08T15:18:29;12.65;;;2.70;;
23884;SDS011;12123;53.088;7.392;2022-12-08T15:21:02;5.82;;;2.65;;
23884;SDS011;12123;53.088;7.392;2022-12-08T15:23:33;9.00;;;2.83;;
23884;SDS011;12123;53.088;7.392;2022-12-08T15:26:04;10.70;;;2.35;;
23884;SDS011;12123;53.088;7.392;2022-12-08T15:28:31;9.75;;;2.40;;
23884;SDS011;12123;53.088;7.392;2022-12-08T15:30:59;10.43;;;3.00;;
23884;SDS011;12123;53.088;7.392;2022-12-08T15:33:26;8.70;;;3.08;;
23884;SDS011;12123;53.088;7.392;2022-12-08T15:35:53;8.43;;;2.80;;
23884;SDS011;12123;53.088;7.392;2022-12-08T15:38:24;8.98;;;3.00;;
23884;SDS011;12123;53.088;7.392;2022-12-08T15:40:54;6.65;;;2.38;;
23884;SDS011;12123;53.088;7.392;2022-12-08T15:43:21;7.03;;;2.60;;
23884;SDS011;12123;53.088;7.392;2022-12-08T15:45:49;10.68;;;2.50;;
23884;SDS011;12123;53.088;7.392;2022-12-08T15:48:25;9.00;;;3.00;;
23884;SDS011;12123;53.088;7.392;2022-12-08T15:50:53;4.28;;;2.55;;
23884;SDS011;12123;53.088;7.392;2022-12-08T15:53:21;6.70;;;2.70;;
23884;SDS011;12123;53.088;7.392;2022-12-08T15:55:48;8.10;;;2.75;;
23884;SDS011;12123;53.088;7.392;2022-12-08T15:58:36;7.95;;;3.20;;
23884;SDS011;12123;53.088;7.392;2022-12-08T16:01:19;6.68;;;3.03;;
23884;SDS011;12123;53.088;7.392;2022-12-08T16:03:47;9.88;;;3.25;;
23884;SDS011;12123;53.088;7.392;2022-12-08T16:06:35;11.75;;;3.88;;
23884;SDS011;12123;53.088;7.392;2022-12-08T16:09:25;9.10;;;3.90;;
23884;SDS011;12123;53.088;7.392;2022-12-08T16:11:55;6.65;;;3.92;;
23884;SDS011;12123;53.088;7.392;2022-12-08T16:14:41;8.95;;;4.00;;
23884;SDS011;12123;53.088;7.392;2022-12-08T16:17:32;7.00;;;3.47;;
23884;SDS011;12123;53.088;7.392;2022-12-08T16:19:59;6.60;;;3.72;;
23884;SDS011;12123;53.088;7.392;2022-12-08T16:22:28;8.70;;;3.70;;
23884;SDS011;12123;53.088;7.392;2022-12-08T16:25:17;7.18;;;3.83;;
23884;SDS011;12123;53.088;7.392;2022-12-08T16:27:47;8.80;;;4.35;;
23884;SDS011;12123;53.088;7.392;2022-12-08T16:30:35;7.47;;;4.80;;
23884;SDS011;12123;53.088;7.392;2022-12-08T16:33:02;8.75;;;3.95;;
23884;SDS011;12123;53.088;7.392;2022-12-08T16:35:30;10.35;;;4.70;;
23884;SDS011;12123;53.088;7.392;2022-12-08T16:37:57;15.82;;;4.05;;
23884;SDS011;12123;53.088;7.392;2022-12-08T16:40:24;11.68;;;5.55;;
23884;SDS011;12123;53.088;7.392;2022-12-08T16:42:51;12.50;;;4.90;;
23884;SDS011;12123;53.088;7.392;2022-12-08T16:45:20;10.55;;;5.50;;
23884;SDS011;12123;53.088;7.392;2022-12-08T16:47:58;15.48;;;6.93;;
23884;SDS011;12123;53.088;7.392;2022-12-08T16:50:26;15.88;;;6.55;;
23884;SDS011;12123;53.088;7.392;2022-12-08T16:53:04;13.25;;;7.30;;
23884;SDS011;12123;53.088;7.392;2022-12-08T16:55:32;15.68;;;7.25;;
23884;SDS011;12123;53.088;7.392;2022-12-08T16:57:59;14.80;;;7.80;;
23884;SDS011;12123;53.088;7.392;2022-12-08T17:00:28;17.48;;;8.68;;
23884;SDS011;12123;53.088;7.392;2022-12-08T17:02:56;15.65;;;7.88;;
23884;SDS011;12123;53.088;7.392;2022-12-08T17:05:24;22.15;;;8.93;;
23884;SDS011;12123;53.088;7.392;2022-12-08T17:07:52;12.60;;;6.80;;
23884;SDS011;12123;53.088;7.392;2022-12-08T17:10:21;14.02;;;7.70;;
23884;SDS011;12123;53.088;7.392;2022-12-08T17:12:48;16.83;;;8.05;;
23884;SDS011;12123;53.088;7.392;2022-12-08T17:15:17;15.50;;;6.93;;
23884;SDS011;12123;53.088;7.392;2022-12-08T17:17:44;14.45;;;6.75;;